KOXD/OXD METAR and TAF weather

Enter ICAO airport designator
Station Type Date Time Source
KOXD METAR 2018/12/15 23:15 UTC NOAA

KOXD 152315Z AUTO 04012G17KT 10SM -DZ OVC004 08/08 A2987 RMK AO2 T00830083


Station Type Date Time Source
KOXD Decoded METAR 2018/12/15 23:15 UTC NOAA

Station name not available
Dec 15, 2018 - 06:15 PM EST / 2018.12.15 2315 UTC
Wind: from the NE (040 degrees) at 14 MPH (12 KT) gusting to 20 MPH (17 KT):0
Visibility: 10 mile(s):0
Sky conditions: overcast
Weather: light drizzle
Temperature: 46.9 F (8.3 C)
Dew Point: 46.9 F (8.3 C)
Relative Humidity: 100%
Pressure (altimeter): 29.87 in. Hg (1011 hPa)
ob: KOXD 152315Z AUTO 04012G17KT 10SM -DZ OVC004 08/08 A2987 RMK AO2 T00830083
cycle: 23

Station Type Date Time Source
KOXD TAF UTC NOAA

Error!


Example: see airport list